createdAt,value
2023-02-02T00:01:22.409Z,3.38
2023-02-02T00:03:50.872Z,4.07
2023-02-02T00:06:23.300Z,4.15
2023-02-02T00:08:50.633Z,4.32
2023-02-02T00:11:18.995Z,4.57
2023-02-02T00:13:46.330Z,3.85
2023-02-02T00:16:22.075Z,3.85
2023-02-02T00:18:49.552Z,3.80
2023-02-02T00:21:16.486Z,4.15
2023-02-02T00:23:43.487Z,3.47
2023-02-02T00:26:11.181Z,3.33
2023-02-02T00:28:38.116Z,3.75
2023-02-02T00:31:05.334Z,4.93
2023-02-02T00:33:32.338Z,4.25
2023-02-02T00:35:59.249Z,4.57
2023-02-02T00:38:26.267Z,4.32
2023-02-02T00:40:53.126Z,4.43
2023-02-02T00:43:20.112Z,4.00
2023-02-02T00:45:47.504Z,3.65
2023-02-02T00:48:14.620Z,4.47
2023-02-02T00:50:41.784Z,3.60
2023-02-02T00:53:08.697Z,2.90
2023-02-02T00:55:35.667Z,4.80
2023-02-02T00:58:02.976Z,3.63
2023-02-02T01:00:29.987Z,4.32
2023-02-02T01:02:57.639Z,4.22
2023-02-02T01:05:24.923Z,3.63
2023-02-02T01:07:51.920Z,3.97
2023-02-02T01:10:19.725Z,4.43
2023-02-02T01:12:46.674Z,4.05
2023-02-02T01:15:14.350Z,5.28
2023-02-02T01:17:41.652Z,4.10
2023-02-02T01:20:12.950Z,4.80
2023-02-02T01:22:39.788Z,3.83
2023-02-02T01:25:06.940Z,4.05
2023-02-02T01:27:33.892Z,3.80
2023-02-02T01:30:00.986Z,4.35
2023-02-02T01:32:27.868Z,4.25
2023-02-02T01:34:55.458Z,4.03
2023-02-02T01:37:25.415Z,3.92
2023-02-02T01:39:52.458Z,3.63
2023-02-02T01:42:23.651Z,3.72
2023-02-02T01:45:17.789Z,3.53
2023-02-02T01:47:54.282Z,3.78
2023-02-02T01:50:26.979Z,3.33
2023-02-02T01:52:57.556Z,3.58
2023-02-02T01:55:28.410Z,3.65
2023-02-02T01:58:05.371Z,4.20
2023-02-02T02:00:32.429Z,4.40
2023-02-02T02:03:08.444Z,3.60
2023-02-02T02:06:05.850Z,3.75
2023-02-02T02:08:55.802Z,3.53
2023-02-02T02:11:24.401Z,3.83
2023-02-02T02:14:12.055Z,3.47
2023-02-02T02:16:45.126Z,4.78
2023-02-02T02:23:36.961Z,4.20
2023-02-02T02:26:34.270Z,4.35
2023-02-02T02:29:32.691Z,4.18
2023-02-02T02:32:19.457Z,4.85
2023-02-02T02:35:02.507Z,2.85
2023-02-02T02:37:52.718Z,3.22
2023-02-02T02:40:38.060Z,3.88
2023-02-02T02:43:27.729Z,4.00
2023-02-02T02:45:55.342Z,4.13
2023-02-02T02:48:22.343Z,4.75
2023-02-02T02:50:50.115Z,3.25
2023-02-02T02:53:23.749Z,3.97
2023-02-02T02:56:09.890Z,2.75
2023-02-02T02:58:55.373Z,2.95
2023-02-02T03:01:40.427Z,3.63
2023-02-02T03:04:29.115Z,3.30
2023-02-02T03:07:13.998Z,3.47
2023-02-02T03:09:43.740Z,3.78
2023-02-02T03:12:11.044Z,4.25
2023-02-02T03:14:39.297Z,3.40
2023-02-02T03:17:06.291Z,4.40
2023-02-02T03:19:33.311Z,2.88
2023-02-02T03:22:00.362Z,4.45
2023-02-02T03:24:27.192Z,3.10
2023-02-02T03:26:54.211Z,3.97
2023-02-02T03:29:21.186Z,3.40
2023-02-02T03:31:48.613Z,2.65
2023-02-02T03:34:15.468Z,4.20
2023-02-02T03:36:42.504Z,3.13
2023-02-02T03:39:09.525Z,4.13
2023-02-02T03:41:36.396Z,3.08
2023-02-02T03:44:03.355Z,3.40
2023-02-02T03:46:30.363Z,3.13
2023-02-02T03:48:57.534Z,2.83
2023-02-02T03:51:24.571Z,4.15
2023-02-02T03:53:51.420Z,3.97
2023-02-02T03:56:21.165Z,3.17
2023-02-02T03:58:48.112Z,3.10
2023-02-02T04:01:15.859Z,3.80
2023-02-02T04:03:43.097Z,3.78
2023-02-02T04:06:10.040Z,3.72
2023-02-02T04:08:37.117Z,2.75
2023-02-02T04:11:04.220Z,3.35
2023-02-02T04:13:31.209Z,3.80
2023-02-02T04:16:01.536Z,3.00
2023-02-02T04:18:29.595Z,3.35
2023-02-02T04:21:01.249Z,2.83
2023-02-02T04:23:29.885Z,3.05
2023-02-02T04:25:57.757Z,4.20
2023-02-02T04:28:26.045Z,3.88
2023-02-02T04:30:54.646Z,3.78
2023-02-02T04:33:24.121Z,3.85
2023-02-02T04:35:51.134Z,4.22
2023-02-02T04:38:18.154Z,3.78
2023-02-02T04:40:47.945Z,3.80
2023-02-02T04:43:15.368Z,4.03
2023-02-02T04:45:42.601Z,3.35
2023-02-02T04:48:09.991Z,3.60
2023-02-02T04:50:38.328Z,3.92
2023-02-02T04:53:05.543Z,4.85
2023-02-02T04:55:37.912Z,3.05
2023-02-02T04:58:05.965Z,3.25
2023-02-02T05:00:33.369Z,4.40
2023-02-02T05:03:00.640Z,3.92
2023-02-02T05:05:27.607Z,3.88
2023-02-02T05:07:54.700Z,3.72
2023-02-02T05:10:21.875Z,4.45
2023-02-02T05:12:49.036Z,2.95
2023-02-02T05:15:16.036Z,3.88
2023-02-02T05:17:44.255Z,3.80
2023-02-02T05:20:11.963Z,3.75
2023-02-02T05:22:39.268Z,3.67
2023-02-02T05:25:07.613Z,2.95
2023-02-02T05:27:35.005Z,4.15
2023-02-02T05:30:02.235Z,3.67
2023-02-02T05:32:29.961Z,3.67
2023-02-02T05:34:57.077Z,4.07
2023-02-02T05:37:24.032Z,3.97
2023-02-02T05:39:52.294Z,3.78
2023-02-02T05:42:19.318Z,4.25
2023-02-02T05:44:46.233Z,3.38
2023-02-02T05:47:13.181Z,4.63
2023-02-02T05:49:40.067Z,4.60
2023-02-02T05:52:07.711Z,4.22
2023-02-02T05:54:34.801Z,5.05
2023-02-02T05:57:03.229Z,4.15
2023-02-02T05:59:30.186Z,5.03
2023-02-02T06:01:57.281Z,3.70
2023-02-02T06:04:24.131Z,3.63
2023-02-02T06:06:51.037Z,4.10
2023-02-02T06:09:17.997Z,4.72
2023-02-02T06:11:45.661Z,4.72
2023-02-02T06:14:13.110Z,4.28
2023-02-02T06:16:42.743Z,4.78
2023-02-02T06:19:09.781Z,6.38
2023-02-02T06:21:36.759Z,4.22
2023-02-02T06:24:03.840Z,4.03
2023-02-02T06:26:30.853Z,4.20
2023-02-02T06:28:57.877Z,4.53
2023-02-02T06:31:25.286Z,4.13
2023-02-02T06:33:57.955Z,4.22
2023-02-02T06:36:27.568Z,3.92
2023-02-02T06:38:57.292Z,4.13
2023-02-02T06:41:24.950Z,4.35
2023-02-02T06:43:52.361Z,3.75
2023-02-02T06:46:19.626Z,4.97
2023-02-02T06:48:46.713Z,4.65
2023-02-02T06:51:13.816Z,3.45
2023-02-02T06:53:40.808Z,3.92
2023-02-02T06:56:11.933Z,4.40
2023-02-02T06:58:39.375Z,4.45
2023-02-02T07:01:11.014Z,3.88
2023-02-02T07:03:38.462Z,4.05
2023-02-02T07:06:18.609Z,4.22
2023-02-02T07:08:54.582Z,4.32
2023-02-02T07:11:29.859Z,5.13
2023-02-02T07:13:56.992Z,3.47
2023-02-02T07:16:24.126Z,3.95
2023-02-02T07:18:51.361Z,3.85
2023-02-02T07:21:25.814Z,6.45
2023-02-02T07:23:52.696Z,3.35
2023-02-02T07:26:20.268Z,3.75
2023-02-02T07:28:47.660Z,5.30
2023-02-02T07:31:22.175Z,4.75
2023-02-02T07:33:50.176Z,3.53
2023-02-02T07:36:20.533Z,6.07
2023-02-02T07:38:49.199Z,4.05
2023-02-02T07:41:16.579Z,4.18
2023-02-02T07:43:50.088Z,4.95
2023-02-02T07:46:18.344Z,5.35
2023-02-02T07:48:45.836Z,5.88
2023-02-02T07:51:16.425Z,4.47
2023-02-02T07:53:49.370Z,4.88
2023-02-02T07:56:23.085Z,5.10
2023-02-02T07:58:53.587Z,5.40
2023-02-02T08:01:23.033Z,4.57
2023-02-02T08:03:51.131Z,4.78
2023-02-02T08:06:37.419Z,4.03
2023-02-02T08:09:10.371Z,4.00
2023-02-02T08:11:38.705Z,3.80
2023-02-02T08:14:06.996Z,3.92
2023-02-02T08:16:36.193Z,4.18
2023-02-02T08:19:06.469Z,3.72
2023-02-02T08:21:34.939Z,3.80
2023-02-02T08:24:03.129Z,3.47
2023-02-02T08:26:31.963Z,4.63
2023-02-02T08:29:03.105Z,3.22
2023-02-02T08:31:39.363Z,3.65
2023-02-02T08:34:06.508Z,3.35
2023-02-02T08:36:35.508Z,3.30
2023-02-02T08:39:07.480Z,3.05
2023-02-02T08:41:35.240Z,2.10
2023-02-02T08:44:05.665Z,3.90
2023-02-02T08:46:32.778Z,2.72
2023-02-02T08:48:59.815Z,3.38
2023-02-02T08:51:26.708Z,2.92
2023-02-02T08:53:53.585Z,2.55
2023-02-02T08:56:23.253Z,2.72
2023-02-02T08:58:55.952Z,2.55
2023-02-02T09:01:26.418Z,2.47
2023-02-02T09:04:08.661Z,2.25
2023-02-02T09:06:40.025Z,2.72
2023-02-02T09:09:10.856Z,2.22
2023-02-02T09:11:39.060Z,2.35
2023-02-02T09:14:06.884Z,2.45
2023-02-02T09:16:35.765Z,2.95
2023-02-02T09:19:04.079Z,2.22
2023-02-02T09:21:31.036Z,4.03
2023-02-02T09:23:57.982Z,3.45
2023-02-02T09:26:29.295Z,2.75
2023-02-02T09:29:03.878Z,3.13
2023-02-02T09:31:34.840Z,3.00
2023-02-02T09:34:14.388Z,2.58
2023-02-02T09:36:43.064Z,2.72
2023-02-02T09:39:16.683Z,2.75
2023-02-02T09:41:55.972Z,3.72
2023-02-02T09:44:49.218Z,3.08
2023-02-02T09:47:25.428Z,3.25
2023-02-02T09:50:09.392Z,3.45
2023-02-02T09:52:49.911Z,3.35
2023-02-02T09:55:43.161Z,3.55
2023-02-02T09:58:31.555Z,4.22
2023-02-02T10:01:25.939Z,3.58
2023-02-02T10:04:05.689Z,3.83
2023-02-02T10:06:43.893Z,2.97
2023-02-02T10:09:48.873Z,3.00
2023-02-02T10:12:33.282Z,3.05
2023-02-02T10:15:13.259Z,2.88
2023-02-02T10:18:11.267Z,3.00
2023-02-02T10:20:58.362Z,3.00
2023-02-02T10:23:42.055Z,2.70
2023-02-02T10:26:34.416Z,3.50
2023-02-02T10:29:48.924Z,3.35
2023-02-02T10:32:35.170Z,3.08
2023-02-02T10:35:59.997Z,3.15
2023-02-02T10:38:49.399Z,2.40
2023-02-02T10:41:41.458Z,2.47
2023-02-02T10:44:34.656Z,2.15
2023-02-02T10:47:08.941Z,2.58
2023-02-02T10:49:39.193Z,3.33
2023-02-02T10:52:12.269Z,2.78
2023-02-02T10:58:07.847Z,2.35
2023-02-02T11:00:46.864Z,2.88
2023-02-02T11:03:16.850Z,2.50
2023-02-02T11:06:02.778Z,2.13
2023-02-02T11:08:44.069Z,2.88
2023-02-02T11:11:22.626Z,2.10
2023-02-02T11:14:08.828Z,3.55
2023-02-02T11:16:44.017Z,3.83
2023-02-02T11:19:24.261Z,3.13
2023-02-02T11:21:56.680Z,3.30
2023-02-02T11:24:45.538Z,2.50
2023-02-02T11:27:24.481Z,2.25
2023-02-02T11:29:57.408Z,3.05
2023-02-02T11:32:32.118Z,2.78
2023-02-02T11:35:08.288Z,2.13
2023-02-02T11:37:37.948Z,2.83
2023-02-02T11:40:27.706Z,2.95
2023-02-02T11:43:02.413Z,2.90
2023-02-02T11:45:40.647Z,2.40
2023-02-02T11:48:22.167Z,1.83
2023-02-02T11:50:54.027Z,1.77
2023-02-02T11:53:35.253Z,2.15
2023-02-02T11:56:19.144Z,2.72
2023-02-02T11:58:53.505Z,2.28
2023-02-02T12:01:46.902Z,2.22
2023-02-02T12:04:16.505Z,2.60
2023-02-02T12:06:43.883Z,2.30
2023-02-02T12:09:18.208Z,2.58
2023-02-02T12:12:02.660Z,1.48
2023-02-02T12:15:20.015Z,3.00
2023-02-02T12:17:48.570Z,2.35
2023-02-02T12:20:58.944Z,1.92
2023-02-02T12:23:40.462Z,1.67
2023-02-02T12:26:21.464Z,1.73
2023-02-02T12:29:22.035Z,2.05
2023-02-02T12:32:12.773Z,3.13
2023-02-02T12:35:33.711Z,2.28
2023-02-02T12:38:21.070Z,2.28
2023-02-02T12:41:01.306Z,2.33
2023-02-02T12:43:40.832Z,2.13
2023-02-02T12:46:52.194Z,2.20
2023-02-02T12:49:43.109Z,1.90
2023-02-02T12:52:40.587Z,2.08
2023-02-02T12:55:38.907Z,1.92
2023-02-02T12:58:37.247Z,2.35
2023-02-02T13:01:38.971Z,1.88
2023-02-02T13:04:52.764Z,2.53
2023-02-02T13:07:39.471Z,2.35
2023-02-02T13:10:24.063Z,2.28
2023-02-02T13:13:09.510Z,2.50
2023-02-02T13:15:40.563Z,1.88
2023-02-02T13:18:27.885Z,2.28
2023-02-02T13:21:25.325Z,2.38
2023-02-02T13:23:57.346Z,1.95
2023-02-02T13:26:38.875Z,1.98
2023-02-02T13:29:11.407Z,1.65
2023-02-02T13:32:01.599Z,2.78
2023-02-02T13:34:55.239Z,2.50
2023-02-02T13:38:05.033Z,1.95
2023-02-02T13:40:40.590Z,2.42
2023-02-02T13:43:35.517Z,1.77
2023-02-02T13:46:15.267Z,2.42
2023-02-02T13:49:01.271Z,2.45
2023-02-02T13:51:53.879Z,2.55
2023-02-02T13:54:53.149Z,2.57
2023-02-02T13:57:57.629Z,2.60
2023-02-02T14:00:34.973Z,2.28
2023-02-02T14:03:06.245Z,2.03
2023-02-02T14:05:40.510Z,2.70
2023-02-02T14:08:21.436Z,2.08
2023-02-02T14:11:05.619Z,1.67
2023-02-02T14:14:05.132Z,2.38
2023-02-02T14:16:31.948Z,2.63
2023-02-02T14:19:01.290Z,2.05
2023-02-02T14:21:34.360Z,1.73
2023-02-02T14:24:26.498Z,2.00
2023-02-02T14:27:00.633Z,1.77
2023-02-02T14:29:33.512Z,2.10
2023-02-02T14:32:09.017Z,2.10
2023-02-02T14:34:46.065Z,1.52
2023-02-02T14:37:24.302Z,2.20
2023-02-02T14:40:06.413Z,2.30
2023-02-02T14:43:33.321Z,1.67
2023-02-02T14:46:15.805Z,1.48
2023-02-02T14:48:49.909Z,1.77
2023-02-02T14:51:22.122Z,1.40
2023-02-02T14:54:06.283Z,1.75
2023-02-02T14:56:50.360Z,1.80
2023-02-02T14:59:27.345Z,1.60
2023-02-02T15:02:16.685Z,1.77
2023-02-02T15:04:48.234Z,1.95
2023-02-02T15:07:24.416Z,1.40
2023-02-02T15:09:56.687Z,1.65
2023-02-02T15:12:31.399Z,1.45
2023-02-02T15:15:18.836Z,1.23
2023-02-02T15:18:13.477Z,1.20
2023-02-02T15:20:48.906Z,1.23
2023-02-02T15:23:31.772Z,1.23
2023-02-02T15:26:24.534Z,1.25
2023-02-02T15:28:51.663Z,1.23
2023-02-02T15:31:23.622Z,1.20
2023-02-02T15:34:09.413Z,1.77
2023-02-02T15:36:43.560Z,1.15
2023-02-02T15:39:34.711Z,1.65
2023-02-02T15:42:26.867Z,1.30
2023-02-02T15:44:53.839Z,1.40
2023-02-02T15:47:35.409Z,1.63
2023-02-02T15:50:17.904Z,1.80
2023-02-02T15:52:50.457Z,1.10
2023-02-02T15:55:24.831Z,1.38
2023-02-02T15:57:54.402Z,1.25
2023-02-02T16:00:35.867Z,1.40
2023-02-02T16:03:15.455Z,1.13
2023-02-02T16:05:50.299Z,2.08
2023-02-02T16:08:25.867Z,2.05
2023-02-02T16:11:08.285Z,1.73
2023-02-02T16:13:36.350Z,1.20
2023-02-02T16:16:22.415Z,2.20
2023-02-02T16:19:14.111Z,1.75
2023-02-02T16:21:51.476Z,2.33
2023-02-02T16:24:54.769Z,1.90
2023-02-02T16:27:29.657Z,2.47
2023-02-02T16:30:05.038Z,1.75
2023-02-02T16:32:39.659Z,1.85
2023-02-02T16:35:30.698Z,1.88
2023-02-02T16:38:24.347Z,2.42
2023-02-02T16:41:28.370Z,2.33
2023-02-02T16:43:56.184Z,1.90
2023-02-02T16:46:48.440Z,2.17
2023-02-02T16:49:24.146Z,2.15
2023-02-02T16:52:18.348Z,2.92
2023-02-02T16:54:56.499Z,1.92
2023-02-02T16:57:34.375Z,2.20
2023-02-02T17:00:06.741Z,2.30
2023-02-02T17:02:38.943Z,2.17
2023-02-02T17:05:29.094Z,2.88
2023-02-02T17:08:05.668Z,2.83
2023-02-02T17:10:36.522Z,2.47
2023-02-02T17:13:33.594Z,2.15
2023-02-02T17:16:00.925Z,2.08
2023-02-02T17:18:28.165Z,2.97
2023-02-02T17:21:04.399Z,2.92
2023-02-02T17:23:33.022Z,2.97
2023-02-02T17:26:00.027Z,2.70
2023-02-02T17:28:27.823Z,3.58
2023-02-02T17:31:09.848Z,3.40
2023-02-02T17:33:37.539Z,3.22
2023-02-02T17:36:06.476Z,3.30
2023-02-02T17:38:33.698Z,2.50
2023-02-02T17:41:02.915Z,2.40
2023-02-02T17:43:35.033Z,3.40
2023-02-02T17:46:04.096Z,3.20
2023-02-02T17:48:31.155Z,3.60
2023-02-02T17:50:58.106Z,2.97
2023-02-02T17:53:25.352Z,3.60
2023-02-02T17:55:53.537Z,3.47
2023-02-02T17:58:20.898Z,4.40
2023-02-02T18:00:53.736Z,4.95
2023-02-02T18:03:34.488Z,4.57
2023-02-02T18:06:02.455Z,4.15
2023-02-02T18:08:30.222Z,4.03
2023-02-02T18:10:57.798Z,4.38
2023-02-02T18:13:25.441Z,4.07
2023-02-02T18:15:55.311Z,11.27
2023-02-02T18:18:23.590Z,4.60
2023-02-02T18:20:51.430Z,7.10
2023-02-02T18:23:19.147Z,5.00
2023-02-02T18:25:46.310Z,4.95
2023-02-02T18:28:17.328Z,8.25
2023-02-02T18:30:45.707Z,7.68
2023-02-02T18:33:14.648Z,5.57
2023-02-02T18:35:43.711Z,12.55
2023-02-02T18:38:10.981Z,4.80
2023-02-02T18:40:38.410Z,3.92
2023-02-02T18:43:05.703Z,3.55
2023-02-02T18:45:32.720Z,3.70
2023-02-02T18:47:59.880Z,3.58
2023-02-02T18:50:26.781Z,4.53
2023-02-02T18:52:53.854Z,3.17
2023-02-02T18:55:20.881Z,4.53
2023-02-02T18:57:47.804Z,3.75
2023-02-02T19:00:15.917Z,3.47
2023-02-02T19:02:43.286Z,4.22
2023-02-02T19:05:28.931Z,3.97
2023-02-02T19:07:56.098Z,4.15
2023-02-02T19:10:28.236Z,4.40
2023-02-02T19:13:19.659Z,4.13
2023-02-02T19:15:49.372Z,4.38
2023-02-02T19:18:24.713Z,4.15
2023-02-02T19:20:53.204Z,3.55
2023-02-02T19:23:29.746Z,4.05
2023-02-02T19:25:56.938Z,3.45
2023-02-02T19:28:25.933Z,3.45
2023-02-02T19:30:56.432Z,4.50
2023-02-02T19:33:44.541Z,3.60
2023-02-02T19:36:19.249Z,3.42
2023-02-02T19:38:47.838Z,4.18
2023-02-02T19:41:24.203Z,4.32
2023-02-02T19:44:02.186Z,3.55
2023-02-02T19:46:30.995Z,3.70
2023-02-02T19:49:12.664Z,3.40
2023-02-02T19:51:48.831Z,2.83
2023-02-02T19:54:26.357Z,3.58
2023-02-02T19:57:15.244Z,3.92
2023-02-02T19:59:46.481Z,3.72
2023-02-02T20:02:34.635Z,3.10
2023-02-02T20:05:21.472Z,3.15
2023-02-02T20:08:05.796Z,2.72
2023-02-02T20:10:44.497Z,3.25
2023-02-02T20:13:46.743Z,3.75
2023-02-02T20:16:21.728Z,3.13
2023-02-02T20:18:53.997Z,3.13
2023-02-02T20:21:40.752Z,2.90
2023-02-02T20:24:22.640Z,3.85
2023-02-02T20:26:56.033Z,3.65
2023-02-02T20:29:29.546Z,3.03
2023-02-02T20:31:58.720Z,4.35
2023-02-02T20:34:30.030Z,2.85
2023-02-02T20:37:29.560Z,3.17
2023-02-02T20:40:01.329Z,3.35
2023-02-02T20:42:29.103Z,3.58
2023-02-02T20:44:57.835Z,4.00
2023-02-02T20:47:25.043Z,3.92
2023-02-02T20:49:52.003Z,3.58
2023-02-02T20:52:24.068Z,3.80
2023-02-02T20:54:52.501Z,4.20
2023-02-02T20:57:20.066Z,3.97
2023-02-02T20:59:47.041Z,4.25
2023-02-02T21:02:19.520Z,5.25
2023-02-02T21:04:51.263Z,4.82
2023-02-02T21:07:21.266Z,4.50
2023-02-02T21:09:50.837Z,4.15
2023-02-02T21:12:18.501Z,5.50
2023-02-02T21:14:45.465Z,5.07
2023-02-02T21:17:15.634Z,4.13
2023-02-02T21:19:44.406Z,4.25
2023-02-02T21:22:12.359Z,4.88
2023-02-02T21:24:39.688Z,4.35
2023-02-02T21:27:07.060Z,4.90
2023-02-02T21:29:36.684Z,5.55
2023-02-02T21:32:04.900Z,4.57
2023-02-02T21:34:32.819Z,4.82
2023-02-02T21:37:00.313Z,4.47
2023-02-02T21:39:29.901Z,4.38
2023-02-02T21:42:13.414Z,5.25
2023-02-02T21:44:44.475Z,4.82
2023-02-02T21:47:32.845Z,5.88
2023-02-02T21:50:17.907Z,5.60
2023-02-02T21:52:45.657Z,6.57
2023-02-02T21:55:37.925Z,5.88
2023-02-02T21:58:28.233Z,6.07
2023-02-02T22:01:00.320Z,5.85
2023-02-02T22:03:38.043Z,5.27
2023-02-02T22:06:28.160Z,6.20
2023-02-02T22:09:06.750Z,6.28
2023-02-02T22:11:45.537Z,6.57
2023-02-02T22:14:20.659Z,6.88
2023-02-02T22:16:52.747Z,6.15
2023-02-02T22:19:32.465Z,6.80
2023-02-02T22:22:15.005Z,7.45
2023-02-02T22:24:44.199Z,7.20
2023-02-02T22:27:24.460Z,7.47
2023-02-02T22:29:58.563Z,8.65
2023-02-02T22:32:25.500Z,8.25
2023-02-02T22:34:52.484Z,9.00
2023-02-02T22:37:19.495Z,9.80
2023-02-02T22:39:46.464Z,8.20
2023-02-02T22:42:13.496Z,7.95
2023-02-02T22:44:40.386Z,8.38
2023-02-02T22:47:07.349Z,7.65
2023-02-02T22:49:34.257Z,7.18
2023-02-02T22:52:01.130Z,6.55
2023-02-02T22:54:28.015Z,7.75
2023-02-02T22:56:54.946Z,7.50
2023-02-02T22:59:21.923Z,9.05
2023-02-02T23:01:48.843Z,7.88
2023-02-02T23:04:15.876Z,6.72
2023-02-02T23:06:42.781Z,6.43
2023-02-02T23:09:09.719Z,7.65
2023-02-02T23:11:36.801Z,6.10
2023-02-02T23:14:03.737Z,7.90
2023-02-02T23:16:33.706Z,6.85
2023-02-02T23:19:00.743Z,5.78
2023-02-02T23:21:27.799Z,7.25
2023-02-02T23:23:55.884Z,6.43
2023-02-02T23:26:24.151Z,6.00
2023-02-02T23:28:51.462Z,6.40
2023-02-02T23:31:18.910Z,6.25
2023-02-02T23:33:45.989Z,5.85
2023-02-02T23:36:12.989Z,5.53
2023-02-02T23:38:39.847Z,5.80
2023-02-02T23:41:06.807Z,4.28
2023-02-02T23:43:33.812Z,5.75
2023-02-02T23:46:00.804Z,4.50
2023-02-02T23:48:30.764Z,4.95
2023-02-02T23:50:59.235Z,4.47
2023-02-02T23:53:26.197Z,5.38
2023-02-02T23:55:53.168Z,4.20
2023-02-02T23:58:20.962Z,4.32
